Jp Tsubaki — JD2817 — position and weather

sailwx.info

Track history (hours):
 
Tides and Currents Weather Stations Pressure Air Temp Water Temp Dewpoint Dewpoint Depression Visibility Wind Speed Wind Dir Waves Ship Positions

Jp Tsubaki

Last reported at 2016-Dec-10 04:31 UTC. Time now 2016-Dec-10 05:03 UTC.
Position N 35°24' E 139°39'.

Length 115 m; draft 4.5 m.

Type: Cargo ship. MMSI: 431000734.

Date/timePositionNaut miles runAvg speedWind from/ knotsBaromVisibWave heightAir tempDewpointWater temp
2016-Dec-10 04:31N 35°24' E 139°39'0 0.0
2016-Dec-10 03:31N 35°24' E 139°39'0 0.0
2016-Dec-10 02:31N 35°24' E 139°39'0 0.0
2016-Dec-10 01:31N 35°24' E 139°39'0 0.0
2016-Dec-10 00:31N 35°24' E 139°39'0 0.0
2016-Dec-09 23:31N 35°24' E 139°39'0 0.0
2016-Dec-09 22:28N 35°24' E 139°39'0 0.0
2016-Dec-09 21:28N 35°24' E 139°39'0 0.0
2016-Dec-09 20:25N 35°24' E 139°39'0 0.0
2016-Dec-09 19:31N 35°24' E 139°39'0 0.0
2016-Dec-09 18:28N 35°24' E 139°39'0 0.0
2016-Dec-09 17:22N 35°24' E 139°39'0 0.0
2016-Dec-09 16:28N 35°24' E 139°39'0 0.0
2016-Dec-09 15:31N 35°24' E 139°39'0 0.0
2016-Dec-09 14:28N 35°24' E 139°39'1 1.1
2016-Dec-09 13:34N 35°24' E 139°40'9 8.9
2016-Dec-09 12:34N 35°30' E 139°47'3 2.9
2016-Dec-09 11:32N 35°30' E 139°43'0 0.0
2016-Dec-09 10:32N 35°30' E 139°43'0 0.0
2016-Dec-09 09:29N 35°30' E 139°43'0 0.0
2016-Dec-09 08:32N 35°30' E 139°43'0 0.0
2016-Dec-09 07:32N 35°30' E 139°43'0 0.0
2016-Dec-09 06:32N 35°30' E 139°43'0 0.0
2016-Dec-09 05:33N 35°30' E 139°43'4 3.9
2016-Dec-09 04:34N 35°26' E 139°44'5 4.6
2016-Dec-09 03:34N 35°24' E 139°39'0 0.0
2016-Dec-09 02:32N 35°24' E 139°39'0 0.0
2016-Dec-09 01:32N 35°24' E 139°39'0 0.0
2016-Dec-09 00:32N 35°24' E 139°39'0 0.0
2016-Dec-08 23:32N 35°24' E 139°39'0 0.0
2016-Dec-08 22:23N 35°24' E 139°39'0 0.0
2016-Dec-08 21:32N 35°24' E 139°39'0 0.0
2016-Dec-08 20:32N 35°24' E 139°39'0 0.0
2016-Dec-08 19:26N 35°24' E 139°39'0 0.0
2016-Dec-08 18:29N 35°24' E 139°39'0 0.0
2016-Dec-08 17:29N 35°24' E 139°39'0 0.0
2016-Dec-08 16:32N 35°24' E 139°39'0 0.0
2016-Dec-08 15:32N 35°24' E 139°39'3 3.3
2016-Dec-08 14:33N 35°24' E 139°42'6 6.3
2016-Dec-08 13:34N 35°28' E 139°49'6 6.1
2016-Dec-08 12:33N 35°30' E 139°56'3 3.1
2016-Dec-08 11:31N 35°27' E 139°58'0 0.0
2016-Dec-08 10:31N 35°27' E 139°58'0 0.0
2016-Dec-08 09:31N 35°27' E 139°58'0 0.0
2016-Dec-08 08:31N 35°27' E 139°58'1 1.0
2016-Dec-08 07:30N 35°28' E 139°58'9 9.3
2016-Dec-08 06:33N 35°26' E 139°47'7 7.4
2016-Dec-08 05:33N 35°24' E 139°39'0 0.0
2016-Dec-08 04:33N 35°24' E 139°39'0 0.0
2016-Dec-08 03:33N 35°24' E 139°39'0 0.0
2016-Dec-08 02:33N 35°24' E 139°39'0 0.0
2016-Dec-08 01:33N 35°24' E 139°39'0 0.0
2016-Dec-08 00:33N 35°24' E 139°39'0 0.0
2016-Dec-07 23:33N 35°24' E 139°39'7 7.2
2016-Dec-07 22:33N 35°27' E 139°47'9 9.1
2016-Dec-07 21:33N 35°28' E 139°58'0 0.4
2016-Dec-07 20:32N 35°27' E 139°58'0 0.0
2016-Dec-07 19:32N 35°27' E 139°58'0 0.0
2016-Dec-07 18:26N 35°27' E 139°58'0 0.0
2016-Dec-07 17:29N 35°27' E 139°58'0 0.0
2016-Dec-07 16:32N 35°27' E 139°58'0 0.0
2016-Dec-07 15:32N 35°27' E 139°58'0 0.0
2016-Dec-07 14:32N 35°27' E 139°58'6 5.7
2016-Dec-07 13:33N 35°28' E 139°51'1111.1
2016-Dec-07 12:33N 35°24' E 139°39'0 0.0
2016-Dec-07 11:33N 35°24' E 139°39'0 0.0
2016-Dec-07 10:31N 35°24' E 139°39'0 0.0
2016-Dec-07 09:33N 35°24' E 139°39'0 0.0
2016-Dec-07 08:03N 35°24' E 139°39'0 0.0
2016-Dec-07 05:33N 35°24' E 139°39'0 0.1
2016-Dec-07 04:34N 35°24' E 139°38'5 5.1
2016-Dec-07 03:33N 35°23' E 139°44'0 0.0
2016-Dec-07 02:33N 35°23' E 139°44'0 0.1
2016-Dec-07 01:33N 35°22' E 139°45'0 0.0
2016-Dec-07 00:33N 35°22' E 139°45'0 0.0
2016-Dec-06 23:33N 35°22' E 139°44'0 0.0
2016-Dec-06 22:33N 35°22' E 139°44'0 0.0
2016-Dec-06 21:33N 35°23' E 139°44'0 0.0
2016-Dec-06 20:33N 35°23' E 139°44'4 2.0
2016-Dec-06 18:32N 35°24' E 139°40'0 0.0
2016-Dec-06 17:29N 35°24' E 139°40'0 0.0
2016-Dec-06 16:32N 35°24' E 139°40'0 0.0
2016-Dec-06 15:32N 35°24' E 139°40'0 0.0
2016-Dec-06 14:32N 35°24' E 139°40'0 0.0
2016-Dec-06 13:32N 35°24' E 139°40'1 1.0
2016-Dec-06 12:20N 35°24' E 139°39'0 0.0
2016-Dec-06 11:23N 35°24' E 139°39'0 0.0
2016-Dec-06 09:23N 35°24' E 139°39'0 0.0
2016-Dec-06 08:29N 35°24' E 139°39'0 0.0
2016-Dec-06 05:11N 35°24' E 139°39'0 0.0
2016-Dec-06 04:32N 35°24' E 139°39'1 1.2
2016-Dec-06 03:33N 35°24' E 139°40'0 0.0
2016-Dec-06 02:33N 35°24' E 139°40'0 0.0
2016-Dec-06 01:33N 35°24' E 139°40'0 0.0
2016-Dec-06 00:33N 35°24' E 139°40'0 0.0
2016-Dec-05 23:33N 35°24' E 139°40'0 0.0
2016-Dec-05 22:33N 35°24' E 139°40'2 1.9
2016-Dec-05 21:33N 35°23' E 139°41'2 2.3
2016-Dec-05 20:28N 35°23' E 139°44'0 0.0
2016-Dec-05 19:25N 35°23' E 139°44'0 0.0
2016-Dec-05 18:31N 35°23' E 139°44'0 0.0
2016-Dec-05 17:31N 35°23' E 139°44'0 0.0
2016-Dec-05 16:31N 35°23' E 139°44'0 0.0
2016-Dec-05 15:31N 35°23' E 139°44'0 0.1
2016-Dec-05 14:31N 35°23' E 139°44'0 0.0
2016-Dec-05 13:31N 35°23' E 139°44'5 1.6
2016-Dec-05 10:29N 35°24' E 139°39'0 0.0
2016-Dec-05 08:32N 35°24' E 139°39'0 0.0
2016-Dec-05 07:08N 35°24' E 139°39'0 0.4
2016-Dec-05 06:33N 35°24' E 139°38'1 1.4
2016-Dec-05 05:34N 35°24' E 139°40'0 0.0
2016-Dec-05 04:31N 35°24' E 139°40'0 0.0
2016-Dec-05 03:31N 35°24' E 139°40'0 0.0
2016-Dec-05 02:31N 35°24' E 139°40'0 0.0
2016-Dec-05 01:31N 35°24' E 139°40'0 0.0
2016-Dec-05 00:31N 35°24' E 139°40'0 0.0
2016-Dec-04 23:31N 35°24' E 139°40'1 1.2
2016-Dec-04 22:33N 35°24' E 139°39'0 0.0
2016-Dec-04 21:33N 35°24' E 139°39'0 0.0
2016-Dec-04 20:33N 35°24' E 139°39'0 0.0
2016-Dec-04 19:33N 35°24' E 139°39'0 0.0
2016-Dec-04 18:33N 35°24' E 139°39'0 0.1
2016-Dec-04 17:33N 35°24' E 139°39'0 0.0
2016-Dec-04 16:33N 35°24' E 139°39'0 0.0
2016-Dec-04 15:33N 35°24' E 139°39'0 0.0
2016-Dec-04 14:33N 35°24' E 139°39'0 0.0
2016-Dec-04 13:27N 35°24' E 139°39'3 3.0
2016-Dec-04 12:33N 35°24' E 139°42'7 6.8
2016-Dec-04 11:33N 35°30' E 139°44'0 0.4
2016-Dec-04 10:33N 35°30' E 139°44'0 0.0
2016-Dec-04 09:30N 35°30' E 139°44'0 0.0
2016-Dec-04 08:33N 35°30' E 139°44'0 0.0
2016-Dec-04 07:33N 35°30' E 139°44'0 0.0
2016-Dec-04 06:33N 35°30' E 139°44'0 0.0
2016-Dec-04 05:30N 35°30' E 139°44'3 2.8
2016-Dec-04 04:33N 35°28' E 139°43'5 4.9
2016-Dec-04 03:33N 35°24' E 139°39'0 0.0
2016-Dec-04 02:31N 35°24' E 139°39'0 0.0
2016-Dec-04 01:31N 35°24' E 139°39'0 0.0
2016-Dec-04 00:31N 35°24' E 139°39'0 0.0
2016-Dec-03 23:31N 35°24' E 139°39'0 0.0
2016-Dec-03 22:31N 35°24' E 139°39'0 0.0
2016-Dec-03 21:31N 35°24' E 139°39'0 0.0
2016-Dec-03 20:31N 35°24' E 139°39'0 0.0
2016-Dec-03 19:31N 35°24' E 139°39'0 0.0
2016-Dec-03 18:31N 35°24' E 139°39'0 0.0
2016-Dec-03 17:31N 35°24' E 139°39'0 0.0
2016-Dec-03 16:31N 35°24' E 139°39'0 0.0
2016-Dec-03 15:31N 35°24' E 139°39'0 0.0
2016-Dec-03 14:31N 35°24' E 139°39'0 0.0
2016-Dec-03 13:31N 35°24' E 139°39'0 0.5
2016-Dec-03 12:33N 35°24' E 139°39'5 5.3
2016-Dec-03 11:33N 35°26' E 139°45'10 9.6
2016-Dec-03 10:33N 35°30' E 139°55'3 3.0
2016-Dec-03 09:24N 35°27' E 139°58'0 0.0
2016-Dec-03 08:33N 35°27' E 139°58'0 0.0
2016-Dec-03 07:30N 35°27' E 139°58'0 0.0
2016-Dec-03 06:30N 35°27' E 139°58'0 0.5
2016-Dec-03 05:32N 35°28' E 139°58'8 8.3
2016-Dec-03 04:33N 35°26' E 139°48'8 8.1
2016-Dec-03 03:33N 35°24' E 139°39'0 0.0
2016-Dec-03 02:33N 35°24' E 139°39'0 0.0
2016-Dec-03 01:33N 35°24' E 139°39'0 0.0
2016-Dec-03 00:33N 35°24' E 139°39'0 0.0
2016-Dec-02 23:33N 35°24' E 139°39'0 0.0
2016-Dec-02 22:33N 35°24' E 139°39'0 0.0
2016-Dec-02 21:30N 35°24' E 139°39'0 0.0
2016-Dec-02 20:30N 35°24' E 139°39'0 0.0
2016-Dec-02 19:30N 35°24' E 139°39'0 0.0
2016-Dec-02 18:30N 35°24' E 139°39'0 0.0
2016-Dec-02 17:27N 35°24' E 139°39'0 0.0
2016-Dec-02 16:33N 35°24' E 139°39'0 0.0
2016-Dec-02 15:33N 35°24' E 139°39'0 0.0
2016-Dec-02 14:33N 35°24' E 139°39'0 0.0
2016-Dec-02 13:33N 35°24' E 139°39'0 0.5
2016-Dec-02 12:33N 35°24' E 139°39'5 5.5
2016-Dec-02 11:33N 35°26' E 139°45'10 9.6
2016-Dec-02 10:34N 35°30' E 139°56'4 3.5
2016-Dec-02 09:31N 35°27' E 139°58'0 0.0
2016-Dec-02 07:22N 35°27' E 139°58'1 0.3
2016-Dec-02 05:30N 35°28' E 139°58'8 8.1
2016-Dec-02 04:33N 35°27' E 139°48'9 8.4
2016-Dec-02 03:33N 35°24' E 139°39'0 0.0
2016-Dec-02 01:24N 35°24' E 139°39'0 0.0
2016-Dec-02 00:27N 35°24' E 139°39'0 0.0
2016-Dec-01 23:33N 35°24' E 139°39'0 0.0
2016-Dec-01 22:33N 35°24' E 139°39'0 0.0
2016-Dec-01 21:33N 35°24' E 139°39'0 0.0
2016-Dec-01 20:33N 35°24' E 139°39'0 0.0
2016-Dec-01 19:33N 35°24' E 139°39'0 0.1
2016-Dec-01 18:33N 35°24' E 139°39'0 0.1
2016-Dec-01 17:33N 35°24' E 139°39'0 0.0
2016-Dec-01 16:33N 35°24' E 139°39'0 0.0
2016-Dec-01 15:33N 35°24' E 139°39'0 0.0
2016-Dec-01 14:33N 35°24' E 139°39'0 0.0
2016-Dec-01 13:33N 35°24' E 139°39'1 0.9
2016-Dec-01 12:33N 35°24' E 139°40'1 0.5
2016-Dec-01 11:31N 35°24' E 139°40'0 0.0
2016-Dec-01 10:31N 35°24' E 139°40'0 0.0
2016-Dec-01 09:31N 35°24' E 139°40'0 0.0
2016-Dec-01 08:31N 35°24' E 139°40'0 0.0
2016-Dec-01 07:31N 35°24' E 139°40'0 0.0
2016-Dec-01 06:31N 35°24' E 139°40'0 0.0
2016-Dec-01 05:31N 35°24' E 139°40'1 1.0
2016-Dec-01 04:33N 35°24' E 139°41'3 2.6
2016-Dec-01 03:33N 35°23' E 139°44'0 0.1
2016-Dec-01 02:33N 35°23' E 139°44'0 0.1
2016-Dec-01 01:33N 35°23' E 139°44'0 0.0
2016-Dec-01 00:33N 35°23' E 139°44'0 0.0
2016-Nov-30 23:33N 35°23' E 139°44'0 0.0
2016-Nov-30 22:33N 35°23' E 139°44'0 0.0
2016-Nov-30 21:33N 35°23' E 139°44'0 0.0
2016-Nov-30 20:33N 35°23' E 139°44'0 0.0
2016-Nov-30 19:33N 35°23' E 139°44'0 0.0
2016-Nov-30 18:33N 35°23' E 139°44'0 0.0
2016-Nov-30 17:33N 35°23' E 139°44'0 0.0
2016-Nov-30 16:33N 35°23' E 139°44'0 0.0
2016-Nov-30 15:33N 35°23' E 139°44'0 0.0
2016-Nov-30 14:33N 35°23' E 139°44'4 4.3
2016-Nov-30 13:33N 35°24' E 139°39'0 0.1
2016-Nov-30 12:32N 35°24' E 139°39'0 0.0
2016-Nov-30 11:32N 35°24' E 139°39'0 0.0
2016-Nov-30 10:32N 35°24' E 139°39'0 0.0
2016-Nov-30 09:32N 35°24' E 139°39'0 0.0
2016-Nov-30 08:32N 35°24' E 139°39'0 0.0
2016-Nov-30 07:33N 35°24' E 139°39'5 5.4
2016-Nov-30 06:33N 35°26' E 139°45'4 3.5
2016-Nov-30 05:33N 35°30' E 139°43'0 0.0
2016-Nov-30 04:33N 35°30' E 139°43'  
Track history (hours):
 
Tides and Currents Weather Stations Pressure Air Temp Water Temp Dewpoint Dewpoint Depression Visibility Wind Speed Wind Dir Waves Ship Positions

Jp Tsubaki

Last reported at 2016-Dec-10 04:31 UTC. Time now 2016-Dec-10 05:03 UTC.
Position N 35°24' E 139°39'.

Length 115 m; draft 4.5 m.

Type: Cargo ship. MMSI: 431000734.

Date/timePositionNaut miles runAvg speedWind from/ knotsBaromVisibWave heightAir tempDewpointWater temp
2016-Dec-10 04:31N 35°24' E 139°39'0 0.0
2016-Dec-10 03:31N 35°24' E 139°39'0 0.0
2016-Dec-10 02:31N 35°24' E 139°39'0 0.0
2016-Dec-10 01:31N 35°24' E 139°39'0 0.0
2016-Dec-10 00:31N 35°24' E 139°39'0 0.0
2016-Dec-09 23:31N 35°24' E 139°39'0 0.0
2016-Dec-09 22:28N 35°24' E 139°39'0 0.0
2016-Dec-09 21:28N 35°24' E 139°39'0 0.0
2016-Dec-09 20:25N 35°24' E 139°39'0 0.0
2016-Dec-09 19:31N 35°24' E 139°39'0 0.0
2016-Dec-09 18:28N 35°24' E 139°39'0 0.0
2016-Dec-09 17:22N 35°24' E 139°39'0 0.0
2016-Dec-09 16:28N 35°24' E 139°39'0 0.0
2016-Dec-09 15:31N 35°24' E 139°39'0 0.0
2016-Dec-09 14:28N 35°24' E 139°39'1 1.1
2016-Dec-09 13:34N 35°24' E 139°40'9 8.9
2016-Dec-09 12:34N 35°30' E 139°47'3 2.9
2016-Dec-09 11:32N 35°30' E 139°43'0 0.0
2016-Dec-09 10:32N 35°30' E 139°43'0 0.0
2016-Dec-09 09:29N 35°30' E 139°43'0 0.0
2016-Dec-09 08:32N 35°30' E 139°43'0 0.0
2016-Dec-09 07:32N 35°30' E 139°43'0 0.0
2016-Dec-09 06:32N 35°30' E 139°43'0 0.0
2016-Dec-09 05:33N 35°30' E 139°43'4 3.9
2016-Dec-09 04:34N 35°26' E 139°44'5 4.6
2016-Dec-09 03:34N 35°24' E 139°39'0 0.0
2016-Dec-09 02:32N 35°24' E 139°39'0 0.0
2016-Dec-09 01:32N 35°24' E 139°39'0 0.0
2016-Dec-09 00:32N 35°24' E 139°39'0 0.0
2016-Dec-08 23:32N 35°24' E 139°39'0 0.0
2016-Dec-08 22:23N 35°24' E 139°39'0 0.0
2016-Dec-08 21:32N 35°24' E 139°39'0 0.0
2016-Dec-08 20:32N 35°24' E 139°39'0 0.0
2016-Dec-08 19:26N 35°24' E 139°39'0 0.0
2016-Dec-08 18:29N 35°24' E 139°39'0 0.0
2016-Dec-08 17:29N 35°24' E 139°39'0 0.0
2016-Dec-08 16:32N 35°24' E 139°39'0 0.0
2016-Dec-08 15:32N 35°24' E 139°39'3 3.3
2016-Dec-08 14:33N 35°24' E 139°42'6 6.3
2016-Dec-08 13:34N 35°28' E 139°49'6 6.1
2016-Dec-08 12:33N 35°30' E 139°56'3 3.1
2016-Dec-08 11:31N 35°27' E 139°58'0 0.0
2016-Dec-08 10:31N 35°27' E 139°58'0 0.0
2016-Dec-08 09:31N 35°27' E 139°58'0 0.0
2016-Dec-08 08:31N 35°27' E 139°58'1 1.0
2016-Dec-08 07:30N 35°28' E 139°58'9 9.3
2016-Dec-08 06:33N 35°26' E 139°47'7 7.4
2016-Dec-08 05:33N 35°24' E 139°39'0 0.0
2016-Dec-08 04:33N 35°24' E 139°39'0 0.0
2016-Dec-08 03:33N 35°24' E 139°39'0 0.0
2016-Dec-08 02:33N 35°24' E 139°39'0 0.0
2016-Dec-08 01:33N 35°24' E 139°39'0 0.0
2016-Dec-08 00:33N 35°24' E 139°39'0 0.0
2016-Dec-07 23:33N 35°24' E 139°39'7 7.2
2016-Dec-07 22:33N 35°27' E 139°47'9 9.1
2016-Dec-07 21:33N 35°28' E 139°58'0 0.4
2016-Dec-07 20:32N 35°27' E 139°58'0 0.0
2016-Dec-07 19:32N 35°27' E 139°58'0 0.0
2016-Dec-07 18:26N 35°27' E 139°58'0 0.0
2016-Dec-07 17:29N 35°27' E 139°58'0 0.0
2016-Dec-07 16:32N 35°27' E 139°58'0 0.0
2016-Dec-07 15:32N 35°27' E 139°58'0 0.0
2016-Dec-07 14:32N 35°27' E 139°58'6 5.7
2016-Dec-07 13:33N 35°28' E 139°51'1111.1
2016-Dec-07 12:33N 35°24' E 139°39'0 0.0
2016-Dec-07 11:33N 35°24' E 139°39'0 0.0
2016-Dec-07 10:31N 35°24' E 139°39'0 0.0
2016-Dec-07 09:33N 35°24' E 139°39'0 0.0
2016-Dec-07 08:03N 35°24' E 139°39'0 0.0
2016-Dec-07 05:33N 35°24' E 139°39'0 0.1
2016-Dec-07 04:34N 35°24' E 139°38'5 5.1
2016-Dec-07 03:33N 35°23' E 139°44'0 0.0
2016-Dec-07 02:33N 35°23' E 139°44'0 0.1
2016-Dec-07 01:33N 35°22' E 139°45'0 0.0
2016-Dec-07 00:33N 35°22' E 139°45'0 0.0
2016-Dec-06 23:33N 35°22' E 139°44'0 0.0
2016-Dec-06 22:33N 35°22' E 139°44'0 0.0
2016-Dec-06 21:33N 35°23' E 139°44'0 0.0
2016-Dec-06 20:33N 35°23' E 139°44'4 2.0
2016-Dec-06 18:32N 35°24' E 139°40'0 0.0
2016-Dec-06 17:29N 35°24' E 139°40'0 0.0
2016-Dec-06 16:32N 35°24' E 139°40'0 0.0
2016-Dec-06 15:32N 35°24' E 139°40'0 0.0
2016-Dec-06 14:32N 35°24' E 139°40'0 0.0
2016-Dec-06 13:32N 35°24' E 139°40'1 1.0
2016-Dec-06 12:20N 35°24' E 139°39'0 0.0
2016-Dec-06 11:23N 35°24' E 139°39'0 0.0
2016-Dec-06 09:23N 35°24' E 139°39'0 0.0
2016-Dec-06 08:29N 35°24' E 139°39'0 0.0
2016-Dec-06 05:11N 35°24' E 139°39'0 0.0
2016-Dec-06 04:32N 35°24' E 139°39'1 1.2
2016-Dec-06 03:33N 35°24' E 139°40'0 0.0
2016-Dec-06 02:33N 35°24' E 139°40'0 0.0
2016-Dec-06 01:33N 35°24' E 139°40'0 0.0
2016-Dec-06 00:33N 35°24' E 139°40'0 0.0
2016-Dec-05 23:33N 35°24' E 139°40'0 0.0
2016-Dec-05 22:33N 35°24' E 139°40'2 1.9
2016-Dec-05 21:33N 35°23' E 139°41'2 2.3
2016-Dec-05 20:28N 35°23' E 139°44'0 0.0
2016-Dec-05 19:25N 35°23' E 139°44'0 0.0
2016-Dec-05 18:31N 35°23' E 139°44'0 0.0
2016-Dec-05 17:31N 35°23' E 139°44'0 0.0
2016-Dec-05 16:31N 35°23' E 139°44'0 0.0
2016-Dec-05 15:31N 35°23' E 139°44'0 0.1
2016-Dec-05 14:31N 35°23' E 139°44'0 0.0
2016-Dec-05 13:31N 35°23' E 139°44'5 1.6
2016-Dec-05 10:29N 35°24' E 139°39'0 0.0
2016-Dec-05 08:32N 35°24' E 139°39'0 0.0
2016-Dec-05 07:08N 35°24' E 139°39'0 0.4
2016-Dec-05 06:33N 35°24' E 139°38'1 1.4
2016-Dec-05 05:34N 35°24' E 139°40'0 0.0
2016-Dec-05 04:31N 35°24' E 139°40'0 0.0
2016-Dec-05 03:31N 35°24' E 139°40'0 0.0
2016-Dec-05 02:31N 35°24' E 139°40'0 0.0
2016-Dec-05 01:31N 35°24' E 139°40'0 0.0
2016-Dec-05 00:31N 35°24' E 139°40'0 0.0
2016-Dec-04 23:31N 35°24' E 139°40'1 1.2
2016-Dec-04 22:33N 35°24' E 139°39'0 0.0
2016-Dec-04 21:33N 35°24' E 139°39'0 0.0
2016-Dec-04 20:33N 35°24' E 139°39'0 0.0
2016-Dec-04 19:33N 35°24' E 139°39'0 0.0
2016-Dec-04 18:33N 35°24' E 139°39'0 0.1
2016-Dec-04 17:33N 35°24' E 139°39'0 0.0
2016-Dec-04 16:33N 35°24' E 139°39'0 0.0
2016-Dec-04 15:33N 35°24' E 139°39'0 0.0
2016-Dec-04 14:33N 35°24' E 139°39'0 0.0
2016-Dec-04 13:27N 35°24' E 139°39'3 3.0
2016-Dec-04 12:33N 35°24' E 139°42'7 6.8
2016-Dec-04 11:33N 35°30' E 139°44'0 0.4
2016-Dec-04 10:33N 35°30' E 139°44'0 0.0
2016-Dec-04 09:30N 35°30' E 139°44'0 0.0
2016-Dec-04 08:33N 35°30' E 139°44'0 0.0
2016-Dec-04 07:33N 35°30' E 139°44'0 0.0
2016-Dec-04 06:33N 35°30' E 139°44'0 0.0
2016-Dec-04 05:30N 35°30' E 139°44'3 2.8
2016-Dec-04 04:33N 35°28' E 139°43'5 4.9
2016-Dec-04 03:33N 35°24' E 139°39'0 0.0
2016-Dec-04 02:31N 35°24' E 139°39'0 0.0
2016-Dec-04 01:31N 35°24' E 139°39'0 0.0
2016-Dec-04 00:31N 35°24' E 139°39'0 0.0
2016-Dec-03 23:31N 35°24' E 139°39'0 0.0
2016-Dec-03 22:31N 35°24' E 139°39'0 0.0
2016-Dec-03 21:31N 35°24' E 139°39'0 0.0
2016-Dec-03 20:31N 35°24' E 139°39'0 0.0
2016-Dec-03 19:31N 35°24' E 139°39'0 0.0
2016-Dec-03 18:31N 35°24' E 139°39'0 0.0
2016-Dec-03 17:31N 35°24' E 139°39'0 0.0
2016-Dec-03 16:31N 35°24' E 139°39'0 0.0
2016-Dec-03 15:31N 35°24' E 139°39'0 0.0
2016-Dec-03 14:31N 35°24' E 139°39'0 0.0
2016-Dec-03 13:31N 35°24' E 139°39'0 0.5
2016-Dec-03 12:33N 35°24' E 139°39'5 5.3
2016-Dec-03 11:33N 35°26' E 139°45'10 9.6
2016-Dec-03 10:33N 35°30' E 139°55'3 3.0
2016-Dec-03 09:24N 35°27' E 139°58'0 0.0
2016-Dec-03 08:33N 35°27' E 139°58'0 0.0
2016-Dec-03 07:30N 35°27' E 139°58'0 0.0
2016-Dec-03 06:30N 35°27' E 139°58'0 0.5
2016-Dec-03 05:32N 35°28' E 139°58'8 8.3
2016-Dec-03 04:33N 35°26' E 139°48'8 8.1
2016-Dec-03 03:33N 35°24' E 139°39'0 0.0
2016-Dec-03 02:33N 35°24' E 139°39'0 0.0
2016-Dec-03 01:33N 35°24' E 139°39'0 0.0
2016-Dec-03 00:33N 35°24' E 139°39'0 0.0
2016-Dec-02 23:33N 35°24' E 139°39'0 0.0
2016-Dec-02 22:33N 35°24' E 139°39'0 0.0
2016-Dec-02 21:30N 35°24' E 139°39'0 0.0
2016-Dec-02 20:30N 35°24' E 139°39'0 0.0
2016-Dec-02 19:30N 35°24' E 139°39'0 0.0
2016-Dec-02 18:30N 35°24' E 139°39'0 0.0
2016-Dec-02 17:27N 35°24' E 139°39'0 0.0
2016-Dec-02 16:33N 35°24' E 139°39'0 0.0
2016-Dec-02 15:33N 35°24' E 139°39'0 0.0
2016-Dec-02 14:33N 35°24' E 139°39'0 0.0
2016-Dec-02 13:33N 35°24' E 139°39'0 0.5
2016-Dec-02 12:33N 35°24' E 139°39'5 5.5
2016-Dec-02 11:33N 35°26' E 139°45'10 9.6
2016-Dec-02 10:34N 35°30' E 139°56'4 3.5
2016-Dec-02 09:31N 35°27' E 139°58'0 0.0
2016-Dec-02 07:22N 35°27' E 139°58'1 0.3
2016-Dec-02 05:30N 35°28' E 139°58'8 8.1
2016-Dec-02 04:33N 35°27' E 139°48'9 8.4
2016-Dec-02 03:33N 35°24' E 139°39'0 0.0
2016-Dec-02 01:24N 35°24' E 139°39'0 0.0
2016-Dec-02 00:27N 35°24' E 139°39'0 0.0
2016-Dec-01 23:33N 35°24' E 139°39'0 0.0
2016-Dec-01 22:33N 35°24' E 139°39'0 0.0
2016-Dec-01 21:33N 35°24' E 139°39'0 0.0
2016-Dec-01 20:33N 35°24' E 139°39'0 0.0
2016-Dec-01 19:33N 35°24' E 139°39'0 0.1
2016-Dec-01 18:33N 35°24' E 139°39'0 0.1
2016-Dec-01 17:33N 35°24' E 139°39'0 0.0
2016-Dec-01 16:33N 35°24' E 139°39'0 0.0
2016-Dec-01 15:33N 35°24' E 139°39'0 0.0
2016-Dec-01 14:33N 35°24' E 139°39'0 0.0
2016-Dec-01 13:33N 35°24' E 139°39'1 0.9
2016-Dec-01 12:33N 35°24' E 139°40'1 0.5
2016-Dec-01 11:31N 35°24' E 139°40'0 0.0
2016-Dec-01 10:31N 35°24' E 139°40'0 0.0
2016-Dec-01 09:31N 35°24' E 139°40'0 0.0
2016-Dec-01 08:31N 35°24' E 139°40'0 0.0
2016-Dec-01 07:31N 35°24' E 139°40'0 0.0
2016-Dec-01 06:31N 35°24' E 139°40'0 0.0
2016-Dec-01 05:31N 35°24' E 139°40'1 1.0
2016-Dec-01 04:33N 35°24' E 139°41'3 2.6
2016-Dec-01 03:33N 35°23' E 139°44'0 0.1
2016-Dec-01 02:33N 35°23' E 139°44'0 0.1
2016-Dec-01 01:33N 35°23' E 139°44'0 0.0
2016-Dec-01 00:33N 35°23' E 139°44'0 0.0
2016-Nov-30 23:33N 35°23' E 139°44'0 0.0
2016-Nov-30 22:33N 35°23' E 139°44'0 0.0
2016-Nov-30 21:33N 35°23' E 139°44'0 0.0
2016-Nov-30 20:33N 35°23' E 139°44'0 0.0
2016-Nov-30 19:33N 35°23' E 139°44'0 0.0
2016-Nov-30 18:33N 35°23' E 139°44'0 0.0
2016-Nov-30 17:33N 35°23' E 139°44'0 0.0
2016-Nov-30 16:33N 35°23' E 139°44'0 0.0
2016-Nov-30 15:33N 35°23' E 139°44'0 0.0
2016-Nov-30 14:33N 35°23' E 139°44'4 4.3
2016-Nov-30 13:33N 35°24' E 139°39'0 0.1
2016-Nov-30 12:32N 35°24' E 139°39'0 0.0
2016-Nov-30 11:32N 35°24' E 139°39'0 0.0
2016-Nov-30 10:32N 35°24' E 139°39'0 0.0
2016-Nov-30 09:32N 35°24' E 139°39'0 0.0
2016-Nov-30 08:32N 35°24' E 139°39'0 0.0
2016-Nov-30 07:33N 35°24' E 139°39'5 5.4
2016-Nov-30 06:33N 35°26' E 139°45'4 3.5
2016-Nov-30 05:33N 35°30' E 139°43'0 0.0
2016-Nov-30 04:33N 35°30' E 139°43'  

Dump ship's entire track history